Time;durP1;ratioP1;P1;durP2;ratioP2;P2;SDS_P1;SDS_P2;PMS_P1;PMS_P2;Temp;Humidity;BMP_temperature;BMP_pressure;BME280_temperature;BME280_humidity;BME280_pressure;Samples;Min_cycle;Max_cycle;Signal;HPM_P1;HPM_P2
2022/06/19 00:02:08;;;;;;;13.35;2.88;;;26.00;59.80;;;;;;5054933;28;20181;-58
2022/06/19 00:04:33;;;;;;;12.85;2.70;;;26.00;60.70;;;;;;5054543;28;20212;-59
2022/06/19 00:06:59;;;;;;;11.43;2.65;;;25.90;60.50;;;;;;5054831;28;20166;-59
2022/06/19 00:09:26;;;;;;;13.43;2.78;;;25.90;60.40;;;;;;5054688;28;20185;-59
2022/06/19 00:11:52;;;;;;;11.07;3.13;;;25.90;59.70;;;;;;5054454;28;20692;-59
2022/06/19 00:14:18;;;;;;;11.73;2.67;;;25.90;60.00;;;;;;5054448;28;20185;-59
2022/06/19 00:16:43;;;;;;;7.90;2.72;;;25.90;60.30;;;;;;5054626;28;20581;-59
2022/06/19 00:19:09;;;;;;;10.40;2.72;;;25.90;60.20;;;;;;5054133;28;20221;-59
2022/06/19 00:21:34;;;;;;;13.82;3.10;;;25.90;60.20;;;;;;5054525;28;20173;-59
2022/06/19 00:24:00;;;;;;;14.13;2.65;;;25.80;60.30;;;;;;5054180;28;20193;-59
2022/06/19 00:26:26;;;;;;;12.80;3.80;;;25.80;60.10;;;;;;5054430;28;20204;-59
2022/06/19 00:28:51;;;;;;;9.32;2.50;;;25.80;60.10;;;;;;5053988;28;20189;-59
2022/06/19 00:31:17;;;;;;;12.88;3.00;;;25.80;60.10;;;;;;5054366;28;20259;-59
2022/06/19 00:33:43;;;;;;;11.90;3.08;;;25.70;60.40;;;;;;5054262;28;20188;-59
2022/06/19 00:36:10;;;;;;;14.15;3.17;;;25.70;60.20;;;;;;5054499;28;20571;-59
2022/06/19 00:38:35;;;;;;;7.93;2.85;;;25.70;61.10;;;;;;5053798;28;20284;-59
2022/06/19 00:41:02;;;;;;;9.32;2.70;;;25.70;60.40;;;;;;5054219;28;20256;-59
2022/06/19 00:43:28;;;;;;;7.30;2.85;;;25.60;61.20;;;;;;5053610;28;20176;-59
2022/06/19 00:45:59;;;;;;;10.20;3.17;;;25.60;61.50;;;;;;5053962;28;20283;-59
2022/06/19 00:48:30;;;;;;;10.38;2.78;;;25.50;61.10;;;;;;5053736;28;20655;-59
2022/06/19 00:51:00;;;;;;;10.70;2.90;;;25.50;61.50;;;;;;5053604;28;20191;-59
2022/06/19 00:53:46;;;;;;;11.25;3.08;;;25.40;62.10;;;;;;5053844;28;20229;-59
2022/06/19 00:56:16;;;;;;;10.93;2.85;;;25.30;62.50;;;;;;5053549;28;20170;-59
2022/06/19 00:58:43;;;;;;;9.57;3.10;;;25.30;63.30;;;;;;5053729;28;20268;-59
2022/06/19 01:01:19;;;;;;;13.93;3.17;;;25.30;63.30;;;;;;5053879;28;20185;-59
2022/06/19 01:03:56;;;;;;;11.52;2.72;;;25.20;63.60;;;;;;5052885;28;20586;-59
2022/06/19 01:06:23;;;;;;;9.70;3.42;;;25.10;64.00;;;;;;5053863;28;20209;-59
2022/06/19 01:08:50;;;;;;;13.23;2.80;;;24.90;64.60;;;;;;5053661;28;20189;-59
2022/06/19 01:11:18;;;;;;;10.20;2.30;;;24.90;65.00;;;;;;5053497;28;20185;-59
2022/06/19 01:13:44;;;;;;;10.13;3.15;;;24.80;65.10;;;;;;5053342;28;20204;-59
2022/06/19 01:16:10;;;;;;;11.63;2.95;;;24.70;65.30;;;;;;5053838;28;20185;-59
2022/06/19 01:18:38;;;;;;;9.82;2.92;;;24.60;65.40;;;;;;5053270;28;20228;-59
2022/06/19 01:21:26;;;;;;;13.35;2.90;;;24.60;65.90;;;;;;5053610;28;20181;-58
2022/06/19 01:24:01;;;;;;;10.40;2.72;;;24.60;66.20;;;;;;5053278;28;20181;-59
2022/06/19 01:26:32;;;;;;;8.73;2.70;;;24.40;66.20;;;;;;5053561;28;20184;-58
2022/06/19 01:28:58;;;;;;;11.23;3.33;;;24.40;66.50;;;;;;5051844;28;20268;-59
2022/06/19 01:31:34;;;;;;;12.30;2.47;;;24.30;66.70;;;;;;5053459;28;20264;-59
2022/06/19 01:36:54;;;;;;;13.32;2.97;;;24.20;67.10;;;;;;5053196;28;20211;-58
2022/06/19 01:39:21;;;;;;;11.73;3.13;;;24.10;67.20;;;;;;5047117;28;20181;-59
2022/06/19 01:41:46;;;;;;;14.32;3.25;;;24.00;67.60;;;;;;5053160;28;20193;-58
2022/06/19 01:44:12;;;;;;;12.77;3.05;;;23.90;68.40;;;;;;5052527;28;20169;-58
2022/06/19 01:46:37;;;;;;;9.18;2.70;;;23.90;68.30;;;;;;5053045;28;20178;-58
2022/06/19 01:49:03;;;;;;;12.88;3.28;;;23.80;68.40;;;;;;5052381;28;20177;-59
2022/06/19 01:51:28;;;;;;;8.90;3.00;;;23.70;69.10;;;;;;5054092;28;20637;-58
2022/06/19 01:53:59;;;;;;;11.30;3.58;;;23.70;69.30;;;;;;5052887;28;20245;-58
2022/06/19 01:56:25;;;;;;;12.65;3.35;;;23.60;69.40;;;;;;5052787;28;20181;-58
2022/06/19 01:58:55;;;;;;;7.22;3.22;;;23.60;69.80;;;;;;5052479;28;20178;-58
2022/06/19 02:01:21;;;;;;;12.88;3.35;;;23.50;70.10;;;;;;5052172;28;20178;-59
2022/06/19 02:03:55;;;;;;;12.25;2.88;;;23.40;70.20;;;;;;5052820;28;20181;-59
2022/06/19 02:06:25;;;;;;;13.05;3.30;;;23.30;70.30;;;;;;5052586;28;20523;-59
2022/06/19 02:08:51;;;;;;;11.95;3.03;;;23.10;71.10;;;;;;5052419;28;20204;-58
2022/06/19 02:11:16;;;;;;;14.02;3.10;;;23.00;71.90;;;;;;5052047;28;20174;-59
2022/06/19 02:13:44;;;;;;;9.20;2.80;;;22.80;72.90;;;;;;5052222;28;20665;-59
2022/06/19 02:16:16;;;;;;;10.88;2.92;;;22.60;73.50;;;;;;5051048;28;20204;-59
2022/06/19 02:18:45;;;;;;;10.13;3.28;;;22.30;74.70;;;;;;5052140;28;20221;-59
2022/06/19 02:21:18;;;;;;;10.10;3.22;;;22.10;73.60;;;;;;5052554;28;20228;-59
2022/06/19 02:23:45;;;;;;;6.65;2.65;;;22.00;73.90;;;;;;5052179;28;20186;-59
2022/06/19 02:26:12;;;;;;;10.38;2.88;;;22.00;74.20;;;;;;5052409;28;20698;-59
2022/06/19 02:28:41;;;;;;;12.98;2.70;;;22.00;74.30;;;;;;5052132;28;20197;-59
2022/06/19 02:31:06;;;;;;;11.32;3.03;;;22.10;74.60;;;;;;5052051;28;20181;-58
2022/06/19 02:33:39;;;;;;;9.85;3.20;;;22.10;74.80;;;;;;5052087;28;20225;-59
2022/06/19 02:36:41;;;;;;;12.02;3.22;;;22.10;75.20;;;;;;5052196;28;20638;-58
2022/06/19 02:39:19;;;;;;;8.57;2.67;;;22.10;75.00;;;;;;5051657;28;20184;-58
2022/06/19 02:41:53;;;;;;;6.60;2.58;;;22.00;75.10;;;;;;5052199;28;20192;-58
2022/06/19 02:44:18;;;;;;;9.75;2.38;;;22.00;75.30;;;;;;5051635;28;20515;-59
2022/06/19 02:46:44;;;;;;;11.43;3.13;;;22.00;75.40;;;;;;5052142;28;20219;-59
2022/06/19 02:49:09;;;;;;;8.98;3.10;;;22.00;76.30;;;;;;5052352;28;20177;-59
2022/06/19 02:51:35;;;;;;;13.02;3.38;;;22.00;76.40;;;;;;5051800;28;20181;-59
2022/06/19 02:54:00;;;;;;;10.27;2.90;;;22.00;76.60;;;;;;5051397;28;20189;-59
2022/06/19 02:56:26;;;;;;;7.35;2.70;;;21.90;76.90;;;;;;5051923;28;20173;-59
2022/06/19 02:58:51;;;;;;;12.95;2.92;;;21.90;77.30;;;;;;5051563;28;20510;-59
2022/06/19 03:01:17;;;;;;;9.38;2.70;;;21.90;77.80;;;;;;5051747;28;20192;-59
2022/06/19 03:03:42;;;;;;;8.65;2.67;;;21.80;78.50;;;;;;5052090;28;20182;-58
2022/06/19 03:06:08;;;;;;;8.95;2.92;;;21.70;78.60;;;;;;5051597;28;20216;-59
2022/06/19 03:08:34;;;;;;;11.65;3.10;;;21.60;79.60;;;;;;5052087;28;20177;-59
2022/06/19 03:11:03;;;;;;;9.43;3.03;;;21.60;80.20;;;;;;5051518;28;20185;-59
2022/06/19 03:13:28;;;;;;;12.85;2.75;;;21.50;80.70;;;;;;5051781;28;20362;-59
2022/06/19 03:16:07;;;;;;;6.07;3.10;;;21.50;81.30;;;;;;5051607;28;20256;-59
2022/06/19 03:18:32;;;;;;;9.65;2.70;;;21.50;81.90;;;;;;5051745;28;20211;-59
2022/06/19 03:20:58;;;;;;;13.30;3.17;;;21.50;82.60;;;;;;5051409;28;20679;-58
2022/06/19 03:23:24;;;;;;;9.52;3.30;;;21.50;83.50;;;;;;5051865;28;20173;-59
2022/06/19 03:25:49;;;;;;;9.48;3.15;;;21.50;84.20;;;;;;5051546;28;20184;-59
2022/06/19 03:28:15;;;;;;;9.10;3.10;;;21.50;85.10;;;;;;5055278;28;20652;-59
2022/06/19 03:30:41;;;;;;;13.75;3.17;;;21.40;86.30;;;;;;5055023;28;20698;-59
2022/06/19 03:33:06;;;;;;;10.63;3.42;;;21.40;87.20;;;;;;5055415;28;20209;-58
2022/06/19 03:35:32;;;;;;;8.63;2.67;;;21.30;88.10;;;;;;5055098;28;20264;-58
2022/06/19 03:37:58;;;;;;;12.05;3.63;;;21.30;89.40;;;;;;5054921;28;20486;-58
2022/06/19 03:40:23;;;;;;;9.38;3.50;;;21.30;90.00;;;;;;5055646;28;20184;-58
2022/06/19 03:42:49;;;;;;;6.07;3.17;;;21.20;90.40;;;;;;5055094;28;20652;-59
2022/06/19 03:45:15;;;;;;;11.57;3.30;;;21.20;90.90;;;;;;5055146;28;20633;-59
2022/06/19 03:47:40;;;;;;;10.05;2.83;;;21.20;91.70;;;;;;5055232;28;20649;-59
2022/06/19 03:50:07;;;;;;;7.00;3.10;;;21.20;92.00;;;;;;5054910;28;20184;-58
2022/06/19 03:52:32;;;;;;;10.88;3.17;;;21.20;92.10;;;;;;5055068;28;20270;-58
2022/06/19 03:54:58;;;;;;;11.98;3.20;;;21.20;92.40;;;;;;5054786;28;20181;-58
2022/06/19 03:57:24;;;;;;;8.40;2.85;;;21.20;92.70;;;;;;5055242;28;20252;-58
2022/06/19 03:59:50;;;;;;;8.88;3.40;;;21.20;92.90;;;;;;5054782;28;20184;-58
2022/06/19 04:02:16;;;;;;;8.18;2.97;;;21.30;93.10;;;;;;5053746;28;20182;-58
2022/06/19 04:04:42;;;;;;;12.20;3.05;;;21.40;93.00;;;;;;5055151;28;20177;-58
2022/06/19 04:07:11;;;;;;;8.68;2.92;;;21.50;92.80;;;;;;5054610;28;20182;-58
2022/06/19 04:09:37;;;;;;;9.68;3.63;;;21.60;93.00;;;;;;5054959;28;20209;-59
2022/06/19 04:12:03;;;;;;;12.27;3.33;;;21.70;92.90;;;;;;5054350;28;20245;-58
2022/06/19 04:14:28;;;;;;;11.00;3.10;;;21.70;92.90;;;;;;5054922;28;20181;-58
2022/06/19 04:16:54;;;;;;;9.00;3.40;;;21.70;93.30;;;;;;5054289;28;20173;-58
2022/06/19 04:19:19;;;;;;;8.48;3.00;;;21.80;93.50;;;;;;5054408;28;20221;-58
2022/06/19 04:21:45;;;;;;;16.35;5.20;;;21.80;93.80;;;;;;5054236;28;20264;-58
2022/06/19 04:24:14;;;;;;;8.00;3.40;;;21.90;93.90;;;;;;5054314;28;20243;-58
2022/06/19 04:26:40;;;;;;;8.38;3.35;;;22.10;93.80;;;;;;5054598;28;20181;-58
2022/06/19 04:29:08;;;;;;;10.57;3.20;;;22.30;93.70;;;;;;5054177;28;20652;-58
2022/06/19 04:31:34;;;;;;;7.60;2.83;;;22.50;93.20;;;;;;5052868;28;20196;-58
2022/06/19 04:34:00;;;;;;;11.43;2.80;;;22.90;92.50;;;;;;5054121;28;20181;-58
2022/06/19 04:36:28;;;;;;;8.43;3.00;;;23.10;91.80;;;;;;5053098;28;20540;-58
2022/06/19 04:38:56;;;;;;;8.70;3.38;;;23.40;91.10;;;;;;5052424;28;20679;-59
2022/06/19 04:41:36;;;;;;;9.50;2.92;;;23.70;90.60;;;;;;5054221;28;20174;-58
2022/06/19 04:44:04;;;;;;;9.93;2.80;;;24.10;89.40;;;;;;5053788;28;20178;-58
2022/06/19 04:46:29;;;;;;;12.40;3.30;;;24.40;88.00;;;;;;5053676;28;20185;-58
2022/06/19 04:48:56;;;;;;;13.65;3.17;;;24.70;86.80;;;;;;5053934;28;20542;-58
2022/06/19 04:51:22;;;;;;;7.63;2.72;;;25.00;85.40;;;;;;5054059;28;20178;-58
2022/06/19 04:53:48;;;;;;;7.32;3.20;;;25.30;84.00;;;;;;5053561;28;20239;-58
2022/06/19 04:56:15;;;;;;;14.23;3.20;;;25.50;83.30;;;;;;5053778;28;20246;-58
2022/06/19 04:58:41;;;;;;;10.07;3.40;;;25.80;81.90;;;;;;5053858;28;20178;-58
2022/06/19 05:01:10;;;;;;;10.10;3.00;;;26.10;80.30;;;;;;5053130;28;20181;-58
2022/06/19 05:03:36;;;;;;;6.97;2.78;;;26.50;79.20;;;;;;5053842;28;20181;-58
2022/06/19 05:06:04;;;;;;;7.95;2.85;;;26.70;77.50;;;;;;5053725;28;20181;-58
2022/06/19 05:08:29;;;;;;;10.77;3.40;;;27.10;77.00;;;;;;5053922;28;20169;-58
2022/06/19 05:10:55;;;;;;;16.42;3.15;;;27.30;75.30;;;;;;5053318;28;20192;-59
2022/06/19 05:13:22;;;;;;;13.77;3.13;;;27.60;74.90;;;;;;5053666;28;20213;-59
2022/06/19 05:15:49;;;;;;;11.15;2.80;;;28.00;74.00;;;;;;5053257;28;20174;-59
2022/06/19 05:18:15;;;;;;;10.82;3.20;;;28.30;72.10;;;;;;5053315;28;20679;-59
2022/06/19 05:20:41;;;;;;;12.60;2.95;;;28.70;71.00;;;;;;5053149;28;20189;-59
2022/06/19 05:23:08;;;;;;;12.55;3.60;;;28.90;69.00;;;;;;5053514;28;20181;-59
2022/06/19 05:25:34;;;;;;;8.07;2.80;;;29.20;68.00;;;;;;5053096;28;20196;-59
2022/06/19 05:28:00;;;;;;;15.57;3.15;;;29.50;66.60;;;;;;5053351;28;20173;-59
2022/06/19 05:30:26;;;;;;;9.13;3.10;;;29.90;66.00;;;;;;5052871;28;20678;-59
2022/06/19 05:32:52;;;;;;;12.38;3.20;;;30.30;65.10;;;;;;5053232;28;20220;-58
2022/06/19 05:35:18;;;;;;;10.75;3.38;;;30.60;64.30;;;;;;5053122;28;20178;-59
2022/06/19 05:37:43;;;;;;;7.15;3.03;;;30.90;63.80;;;;;;5052704;28;20186;-58
2022/06/19 05:40:10;;;;;;;11.30;3.60;;;31.20;62.70;;;;;;5052368;28;20186;-58
2022/06/19 05:42:36;;;;;;;7.32;3.10;;;31.30;61.90;;;;;;5052626;28;20182;-59
2022/06/19 05:45:02;;;;;;;8.07;2.90;;;31.60;61.50;;;;;;5053944;28;20185;-59
2022/06/19 05:47:27;;;;;;;7.85;2.83;;;32.00;60.60;;;;;;5052905;28;20178;-59
2022/06/19 05:49:53;;;;;;;9.68;3.03;;;32.30;60.40;;;;;;5052630;28;20188;-58
2022/06/19 05:52:22;;;;;;;8.35;2.83;;;32.60;59.20;;;;;;5052751;28;20213;-59
2022/06/19 05:54:48;;;;;;;7.18;3.00;;;33.00;58.40;;;;;;5052845;28;20523;-59
2022/06/19 05:57:14;;;;;;;19.30;3.15;;;33.40;57.60;;;;;;5052697;28;20177;-58
2022/06/19 05:59:39;;;;;;;12.48;3.00;;;33.70;56.70;;;;;;5052679;28;20185;-59
2022/06/19 06:02:06;;;;;;;10.68;2.70;;;33.90;56.20;;;;;;5052582;28;20271;-59
2022/06/19 06:04:31;;;;;;;8.93;3.50;;;34.20;56.00;;;;;;5052560;28;20205;-60
2022/06/19 06:06:57;;;;;;;7.28;2.65;;;34.60;55.80;;;;;;5052445;28;20597;-59
2022/06/19 06:09:22;;;;;;;9.90;2.75;;;34.90;55.80;;;;;;5052680;28;20187;-60
2022/06/19 06:11:48;;;;;;;9.43;2.88;;;35.20;55.10;;;;;;5051948;28;20200;-59
2022/06/19 06:14:13;;;;;;;11.68;3.92;;;35.60;54.50;;;;;;5051966;28;20216;-59
2022/06/19 06:16:39;;;;;;;7.25;2.85;;;35.90;53.50;;;;;;5052268;28;20579;-60
2022/06/19 06:19:04;;;;;;;11.10;2.90;;;36.30;52.80;;;;;;5051303;28;20734;-60
2022/06/19 06:21:30;;;;;;;10.30;3.17;;;36.40;52.30;;;;;;5052042;28;20177;-60
2022/06/19 06:23:56;;;;;;;11.15;2.90;;;36.70;52.20;;;;;;5051877;28;20716;-60
2022/06/19 06:26:25;;;;;;;7.25;2.33;;;36.90;51.90;;;;;;5052333;28;20195;-60
2022/06/19 06:28:52;;;;;;;9.43;2.97;;;37.10;51.20;;;;;;5052098;28;20202;-60
2022/06/19 06:31:19;;;;;;;10.20;3.13;;;37.40;50.90;;;;;;5052051;28;20184;-59
2022/06/19 06:33:45;;;;;;;10.27;2.90;;;37.70;50.40;;;;;;5051944;28;20208;-60
2022/06/19 06:36:11;;;;;;;9.13;2.70;;;37.90;49.90;;;;;;5051933;28;20536;-60
2022/06/19 06:38:37;;;;;;;9.88;2.85;;;38.20;49.40;;;;;;5051659;28;20165;-60
2022/06/19 06:41:06;;;;;;;10.75;3.08;;;38.40;49.00;;;;;;5051692;28;20268;-60
2022/06/19 06:43:34;;;;;;;14.10;3.53;;;38.50;48.70;;;;;;5044322;28;20172;-59
2022/06/19 06:46:08;;;;;;;7.70;3.10;;;38.80;48.60;;;;;;5051616;28;20519;-60
2022/06/19 06:48:34;;;;;;;11.95;3.35;;;39.00;48.20;;;;;;5051947;28;20181;-59
2022/06/19 06:51:04;;;;;;;9.70;2.78;;;39.30;48.30;;;;;;5051692;28;20189;-60
2022/06/19 06:53:29;;;;;;;9.00;3.15;;;39.40;47.90;;;;;;5051239;28;20226;-59
2022/06/19 06:55:56;;;;;;;7.25;2.63;;;39.70;47.70;;;;;;5051810;28;20180;-59
2022/06/19 06:58:21;;;;;;;13.02;3.00;;;40.10;47.40;;;;;;5051423;28;20191;-60
2022/06/19 07:00:47;;;;;;;9.00;2.97;;;40.20;47.00;;;;;;5051259;28;20168;-60
2022/06/19 07:03:12;;;;;;;10.88;2.97;;;40.40;47.00;;;;;;5055609;28;20654;-60
2022/06/19 07:05:38;;;;;;;9.93;2.92;;;40.60;44.60;;;;;;5055884;28;20230;-60
2022/06/19 07:08:05;;;;;;;13.93;2.45;;;40.80;43.30;;;;;;5055276;28;20177;-60
2022/06/19 07:10:30;;;;;;;13.18;3.20;;;41.10;42.00;;;;;;5055811;28;20185;-60
2022/06/19 07:12:56;;;;;;;11.80;2.85;;;41.40;42.00;;;;;;5055541;28;20212;-57
2022/06/19 07:15:22;;;;;;;13.00;3.25;;;41.70;42.50;;;;;;5054992;28;20663;-57
2022/06/19 07:17:48;;;;;;;12.15;3.00;;;41.90;43.20;;;;;;5055865;28;20249;-57
2022/06/19 07:20:13;;;;;;;13.70;2.78;;;42.00;41.50;;;;;;5055457;28;20224;-58
2022/06/19 07:22:39;;;;;;;8.38;3.00;;;42.10;42.10;;;;;;5056168;28;20319;-57
2022/06/19 07:25:05;;;;;;;12.55;3.45;;;42.20;41.40;;;;;;5055602;28;20172;-60
2022/06/19 07:27:31;;;;;;;13.43;2.90;;;42.30;40.70;;;;;;5055803;28;20177;-60
2022/06/19 07:29:57;;;;;;;6.63;2.50;;;42.10;40.60;;;;;;5055648;28;20531;-60
2022/06/19 07:32:22;;;;;;;11.27;3.20;;;42.20;40.90;;;;;;5055434;28;20223;-60
2022/06/19 07:34:48;;;;;;;7.93;3.00;;;42.30;40.90;;;;;;5055498;28;20173;-60
2022/06/19 07:37:15;;;;;;;17.67;3.95;;;42.10;40.50;;;;;;5055451;28;20191;-60
2022/06/19 07:39:41;;;;;;;10.40;2.85;;;42.10;40.90;;;;;;5055455;28;20578;-60
2022/06/19 07:42:10;;;;;;;16.58;3.20;;;42.30;41.20;;;;;;5055312;28;20203;-60
2022/06/19 07:44:36;;;;;;;12.50;3.00;;;42.30;40.50;;;;;;5055478;28;20277;-60
2022/06/19 07:50:09;;;;;;;12.15;3.20;;;42.50;39.90;;;;;;5057559;28;20188;-60
2022/06/19 07:52:36;;;;;;;10.70;3.42;;;42.10;40.60;;;;;;5075159;28;20207;-60
2022/06/19 07:55:03;;;;;;;9.32;3.72;;;42.20;40.80;;;;;;5075219;28;20180;-60
2022/06/19 07:57:28;;;;;;;12.63;3.70;;;42.10;40.60;;;;;;5069059;28;20189;-60
2022/06/19 07:59:54;;;;;;;8.15;3.45;;;42.10;41.00;;;;;;5054459;28;20534;-61
2022/06/19 08:02:19;;;;;;;10.80;3.50;;;42.10;40.60;;;;;;5054817;28;20181;-61
2022/06/19 08:04:45;;;;;;;13.70;4.22;;;41.50;40.20;;;;;;5054951;28;20176;-61
2022/06/19 08:07:12;;;;;;;11.57;4.00;;;40.90;41.90;;;;;;5054802;28;20180;-61
2022/06/19 08:09:38;;;;;;;12.02;3.90;;;40.40;42.20;;;;;;5055024;28;20189;-61
2022/06/19 08:12:04;;;;;;;16.55;4.47;;;40.00;43.10;;;;;;5053872;28;20205;-61
2022/06/19 08:14:29;;;;;;;12.27;4.60;;;39.50;42.90;;;;;;5054843;28;20235;-61
2022/06/19 08:16:55;;;;;;;12.80;4.35;;;38.60;43.50;;;;;;5054336;28;20173;-61
2022/06/19 08:19:21;;;;;;;11.25;3.90;;;38.00;44.70;;;;;;5054561;28;20220;-61
2022/06/19 08:21:46;;;;;;;12.60;4.53;;;37.80;44.90;;;;;;5054501;28;20228;-61
2022/06/19 08:24:12;;;;;;;9.52;4.85;;;37.50;44.60;;;;;;5054118;28;20218;-61
2022/06/19 08:26:37;;;;;;;11.95;4.45;;;37.30;44.70;;;;;;5054904;28;20178;-61
2022/06/19 08:29:03;;;;;;;11.10;4.50;;;37.20;44.90;;;;;;5054111;28;20272;-61
2022/06/19 08:31:30;;;;;;;9.23;4.60;;;37.10;43.90;;;;;;5054054;28;20184;-61
2022/06/19 08:33:56;;;;;;;6.25;4.30;;;37.00;42.60;;;;;;5054060;28;20216;-61
2022/06/19 08:36:24;;;;;;;12.95;4.82;;;36.70;42.50;;;;;;5054409;28;20184;-60
2022/06/19 08:38:52;;;;;;;9.05;4.82;;;36.50;42.80;;;;;;5053921;28;20184;-60
2022/06/19 08:41:38;;;;;;;8.52;4.28;;;36.20;43.40;;;;;;5053903;28;20271;-60
2022/06/19 08:44:26;;;;;;;5.55;3.90;;;36.40;44.30;;;;;;5053537;28;20801;-61
2022/06/19 08:47:16;;;;;;;11.60;4.53;;;36.60;43.10;;;;;;5053566;28;20203;-61
2022/06/19 08:50:15;;;;;;;10.25;4.00;;;36.90;43.40;;;;;;5054074;28;20173;-60
2022/06/19 08:53:25;;;;;;;10.93;5.28;;;37.00;42.70;;;;;;5053842;28;20221;-60
2022/06/19 08:56:07;;;;;;;10.45;4.65;;;36.80;42.70;;;;;;5053509;28;20188;-60
2022/06/19 08:59:01;;;;;;;9.98;4.88;;;36.50;43.20;;;;;;5054116;28;20187;-60
2022/06/19 09:01:46;;;;;;;10.25;4.82;;;36.10;42.80;;;;;;5053852;28;20201;-60
2022/06/19 09:07:47;;;;;;;8.63;4.45;;;36.40;44.60;;;;;;5053886;28;20709;-60
2022/06/19 09:10:33;;;;;;;8.63;4.50;;;36.90;43.70;;;;;;5053778;28;20583;-60
2022/06/19 09:13:16;;;;;;;6.38;4.07;;;36.80;42.10;;;;;;5054008;28;20212;-60
2022/06/19 09:15:49;;;;;;;11.73;3.92;;;36.60;42.10;;;;;;5053793;28;20263;-60
2022/06/19 09:18:36;;;;;;;15.15;5.28;;;36.40;43.30;;;;;;5053547;28;20694;-59
2022/06/19 09:21:10;;;;;;;6.55;4.50;;;36.40;42.90;;;;;;5053578;28;20327;-60
2022/06/19 09:24:12;;;;;;;7.85;4.32;;;36.30;43.70;;;;;;5053592;28;20642;-59
2022/06/19 09:27:00;;;;;;;5.50;4.10;;;36.30;43.10;;;;;;5052271;28;20593;-60
2022/06/19 09:29:56;;;;;;;11.60;4.30;;;36.20;43.10;;;;;;5053448;28;20683;-60
2022/06/19 09:32:33;;;;;;;6.88;4.25;;;36.20;43.60;;;;;;5053305;28;20269;-60
2022/06/19 09:35:25;;;;;;;13.25;4.53;;;36.50;42.80;;;;;;5053352;28;20177;-60
2022/06/19 09:38:04;;;;;;;12.23;4.07;;;36.80;43.60;;;;;;5052724;28;20639;-60
2022/06/19 09:40:37;;;;;;;9.90;4.30;;;37.10;42.50;;;;;;5053194;28;20199;-60
2022/06/19 09:43:37;;;;;;;10.07;4.28;;;36.90;41.70;;;;;;5053128;28;20191;-60
2022/06/19 09:46:15;;;;;;;7.40;4.10;;;37.00;41.90;;;;;;5053193;28;20181;-59
2022/06/19 09:49:16;;;;;;;8.07;4.03;;;36.90;41.50;;;;;;5053121;28;20184;-60
2022/06/19 09:51:53;;;;;;;7.15;3.85;;;37.30;42.10;;;;;;5052414;28;20193;-60
2022/06/19 09:54:47;;;;;;;6.32;4.22;;;37.30;40.80;;;;;;5053071;28;20579;-60
2022/06/19 09:57:21;;;;;;;11.02;4.20;;;37.20;40.80;;;;;;5052877;28;20173;-60
2022/06/19 10:00:00;;;;;;;9.48;4.40;;;36.90;41.20;;;;;;5052773;28;20266;-59
2022/06/19 10:02:40;;;;;;;9.55;4.05;;;36.80;41.20;;;;;;5052743;28;20651;-60
2022/06/19 10:05:12;;;;;;;10.05;3.97;;;36.80;41.50;;;;;;5052722;28;20188;-59
2022/06/19 10:07:44;;;;;;;9.25;3.75;;;36.80;41.30;;;;;;5052780;28;20172;-59
2022/06/19 10:10:31;;;;;;;8.40;4.20;;;37.00;40.80;;;;;;5052658;28;20172;-60
2022/06/19 10:13:00;;;;;;;6.70;3.70;;;37.10;41.60;;;;;;5052670;28;20243;-59
2022/06/19 10:15:30;;;;;;;10.43;4.38;;;37.20;41.30;;;;;;5052536;28;20177;-60
2022/06/19 10:18:28;;;;;;;7.40;4.85;;;37.50;41.20;;;;;;5052564;28;20216;-60
2022/06/19 10:24:30;;;;;;;8.95;3.78;;;37.60;40.50;;;;;;5052658;28;20238;-59
2022/06/19 10:27:08;;;;;;;7.32;4.47;;;37.60;40.60;;;;;;5052513;28;20188;-60
2022/06/19 10:29:56;;;;;;;6.30;4.00;;;37.80;40.90;;;;;;5052394;28;20330;-60
2022/06/19 10:32:27;;;;;;;7.40;4.00;;;38.00;40.90;;;;;;5052261;28;20355;-60
2022/06/19 10:34:59;;;;;;;8.02;4.07;;;37.90;40.30;;;;;;5052206;28;20739;-59
2022/06/19 10:37:49;;;;;;;6.97;3.28;;;37.80;40.60;;;;;;5051450;28;20176;-60
2022/06/19 10:40:42;;;;;;;6.18;4.60;;;37.90;40.90;;;;;;5052364;28;20176;-59
2022/06/19 10:43:13;;;;;;;10.98;4.57;;;37.90;40.90;;;;;;5052066;28;20247;-59
2022/06/19 10:45:45;;;;;;;7.80;3.83;;;37.90;40.50;;;;;;5052249;28;20246;-60
2022/06/19 10:48:27;;;;;;;9.60;4.45;;;37.80;40.70;;;;;;5052027;28;20504;-59
2022/06/19 10:51:23;;;;;;;6.53;4.32;;;37.90;41.50;;;;;;5052139;28;20176;-59
2022/06/19 10:54:17;;;;;;;9.15;4.13;;;37.70;40.20;;;;;;5051987;28;20725;-60
2022/06/19 10:56:48;;;;;;;7.60;3.90;;;37.90;40.30;;;;;;5052199;28;20173;-60
2022/06/19 10:59:15;;;;;;;13.55;3.88;;;38.10;41.30;;;;;;5051975;28;20587;-59
2022/06/19 11:04:39;;;;;;;10.02;4.70;;;38.30;41.20;;;;;;5052390;28;20240;-59
2022/06/19 11:07:13;;;;;;;8.07;4.05;;;38.30;40.90;;;;;;5051905;28;20207;-60
2022/06/19 11:09:46;;;;;;;7.25;3.95;;;38.50;41.10;;;;;;5052033;28;20207;-59
2022/06/19 11:12:33;;;;;;;8.05;4.00;;;38.30;40.00;;;;;;5052016;28;20219;-60
2022/06/19 11:15:02;;;;;;;5.50;3.83;;;37.90;39.80;;;;;;5051824;28;20184;-60
2022/06/19 11:17:32;;;;;;;11.50;4.18;;;37.90;40.60;;;;;;5051684;28;20177;-59
2022/06/19 11:19:58;;;;;;;8.20;4.47;;;37.90;40.30;;;;;;5051686;28;20228;-59
2022/06/19 11:22:32;;;;;;;9.10;4.15;;;37.90;40.40;;;;;;5051878;28;20259;-59
2022/06/19 11:25:19;;;;;;;9.25;4.00;;;38.00;40.40;;;;;;5051778;28;20534;-60
2022/06/19 11:27:55;;;;;;;9.80;4.00;;;38.30;40.40;;;;;;5051888;28;20176;-60
2022/06/19 11:30:44;;;;;;;8.40;3.75;;;38.50;40.80;;;;;;5051922;28;20181;-60
2022/06/19 11:33:19;;;;;;;9.57;4.75;;;38.50;40.40;;;;;;5051637;28;20244;-60
2022/06/19 11:35:55;;;;;;;11.07;4.60;;;38.50;40.30;;;;;;5051766;28;20643;-59
2022/06/19 11:38:44;;;;;;;11.02;3.63;;;38.10;39.30;;;;;;5051882;28;20172;-59
2022/06/19 11:41:20;;;;;;;9.40;4.35;;;37.90;40.00;;;;;;5051590;28;20172;-59
2022/06/19 11:43:46;;;;;;;7.72;4.10;;;38.00;40.20;;;;;;5051550;28;20180;-59
2022/06/19 11:46:25;;;;;;;10.88;4.40;;;37.70;40.00;;;;;;5051626;28;20199;-59
2022/06/19 11:48:50;;;;;;;10.15;4.05;;;37.60;40.70;;;;;;5054503;28;20631;-59
2022/06/19 11:51:20;;;;;;;12.25;5.07;;;37.70;41.50;;;;;;5055664;28;20177;-59
2022/06/19 11:53:54;;;;;;;10.80;4.38;;;37.70;41.60;;;;;;5055202;28;20587;-59
2022/06/19 11:56:27;;;;;;;7.10;4.75;;;37.80;42.10;;;;;;5055325;28;20258;-59
2022/06/19 11:58:56;;;;;;;10.45;4.35;;;37.90;42.30;;;;;;5055195;28;20607;-59
2022/06/19 12:01:33;;;;;;;10.15;4.55;;;37.90;41.00;;;;;;5055328;28;20183;-60
2022/06/19 12:04:00;;;;;;;8.85;4.07;;;38.10;41.80;;;;;;5055194;28;20173;-60
2022/06/19 12:06:54;;;;;;;13.20;4.97;;;38.30;41.40;;;;;;5055227;28;20539;-60
2022/06/19 12:09:34;;;;;;;13.95;4.38;;;38.20;40.70;;;;;;5055216;28;20177;-60
2022/06/19 12:12:12;;;;;;;9.13;4.38;;;38.10;41.20;;;;;;5054507;28;20572;-60
2022/06/19 12:14:54;;;;;;;9.25;4.22;;;38.10;41.30;;;;;;5054624;28;20233;-60
2022/06/19 12:17:31;;;;;;;6.65;4.15;;;38.30;41.70;;;;;;5054777;28;20717;-59
2022/06/19 12:19:59;;;;;;;9.68;4.40;;;38.30;41.00;;;;;;5054492;28;20744;-59
2022/06/19 12:22:44;;;;;;;11.57;4.68;;;38.30;40.50;;;;;;5054940;28;20263;-59
2022/06/19 12:25:29;;;;;;;9.25;4.63;;;38.30;42.70;;;;;;5054692;28;20253;-59
2022/06/19 12:28:13;;;;;;;13.02;4.47;;;38.30;41.90;;;;;;5054781;28;20223;-59
2022/06/19 12:30:53;;;;;;;10.85;4.30;;;38.30;41.40;;;;;;5054763;28;20187;-60
2022/06/19 12:33:29;;;;;;;15.35;5.32;;;38.30;41.80;;;;;;5054568;28;20617;-59
2022/06/19 12:35:55;;;;;;;9.73;4.45;;;38.40;40.90;;;;;;5054514;28;20226;-59
2022/06/19 12:38:23;;;;;;;5.95;3.83;;;38.60;40.90;;;;;;5054643;28;20177;-59
2022/06/19 12:40:54;;;;;;;9.15;4.60;;;38.90;41.10;;;;;;5054403;28;20517;-59
2022/06/19 12:43:44;;;;;;;8.90;4.53;;;39.10;40.70;;;;;;5054425;28;20636;-59
2022/06/19 12:46:30;;;;;;;8.68;4.32;;;39.00;40.70;;;;;;5054162;28;20176;-59
2022/06/19 12:49:08;;;;;;;8.07;4.43;;;39.10;40.70;;;;;;5054189;28;20177;-59
2022/06/19 12:51:56;;;;;;;6.90;3.95;;;39.00;40.90;;;;;;5054409;28;20180;-60
2022/06/19 12:54:36;;;;;;;8.05;4.38;;;39.00;40.60;;;;;;5054295;28;20189;-59
2022/06/19 12:57:37;;;;;;;14.48;4.72;;;39.00;40.30;;;;;;5054120;28;20223;-59
2022/06/19 13:00:11;;;;;;;11.48;4.70;;;39.00;40.30;;;;;;5053177;28;20184;-59
2022/06/19 13:03:01;;;;;;;10.85;4.07;;;38.90;40.50;;;;;;5054183;28;20636;-59
2022/06/19 13:05:49;;;;;;;7.57;4.10;;;38.70;40.10;;;;;;5054201;28;20181;-60
2022/06/19 13:08:56;;;;;;;10.98;4.32;;;38.50;40.60;;;;;;5054207;28;20233;-60
2022/06/19 13:11:49;;;;;;;11.27;4.55;;;38.50;41.00;;;;;;5053936;28;20204;-59
2022/06/19 13:14:45;;;;;;;6.13;4.25;;;38.40;40.40;;;;;;5053944;28;20188;-60
2022/06/19 13:17:40;;;;;;;7.43;4.00;;;38.50;40.40;;;;;;5053655;28;20192;-60
2022/06/19 13:20:23;;;;;;;8.23;3.80;;;38.60;40.40;;;;;;5051459;28;20233;-59